Varde, Denmark
Current Conditions -  °F | °C
As of 3:20 PM on Saturday 22 Nov 2014 (Local Time) from EKEB Reporting Station
Light Rain Light Rain  
Wind Chill: 36°   Ceiling: 6100
Heat Index: 41°   Visibility: 5mi
Dew Point: 37°   Wind: 8mph
Humidity: 87%   Direction: 110°ESE
Pressure: 30.12"   Gusts: NA
Location:  55.62°N, 8.48°E
Report Text: EKEB 221420Z AUTO 11007KT 080V140 8000NDV -RA OVC061///05/03 Q1020
Loading
Personal Weather Stations






























Interactive Weather Map New forecast layout! Learn more

10-Day Weather Forecast

Advertisements
Track Severe Weather on mobile